createdAt,value
2022-08-11T00:02:26.379Z,15.74
2022-08-11T00:05:27.856Z,15.75
2022-08-11T00:08:30.509Z,15.68
2022-08-11T00:11:39.327Z,15.77
2022-08-11T00:14:40.829Z,15.75
2022-08-11T00:17:42.337Z,15.74
2022-08-11T00:20:44.159Z,15.70
2022-08-11T00:23:47.001Z,15.61
2022-08-11T00:26:52.265Z,15.50
2022-08-11T00:29:54.419Z,15.42
2022-08-11T00:32:56.513Z,15.46
2022-08-11T00:35:58.484Z,15.44
2022-08-11T00:39:04.015Z,15.31
2022-08-11T00:42:24.314Z,15.33
2022-08-11T00:45:52.402Z,15.38
2022-08-11T00:49:11.967Z,15.28
2022-08-11T00:52:41.421Z,15.22
2022-08-11T00:56:01.318Z,15.36
2022-08-11T00:59:35.384Z,15.17
2022-08-11T01:03:14.950Z,15.19
2022-08-11T01:06:38.184Z,15.25
2022-08-11T01:09:57.301Z,15.09
2022-08-11T01:13:19.061Z,15.17
2022-08-11T01:16:50.244Z,15.17
2022-08-11T01:20:44.694Z,15.16
2022-08-11T01:23:56.018Z,15.10
2022-08-11T01:27:21.778Z,14.99
2022-08-11T01:30:43.810Z,14.86
2022-08-11T01:34:13.264Z,14.85
2022-08-11T01:37:30.908Z,14.87
2022-08-11T01:40:57.296Z,14.90
2022-08-11T01:44:36.199Z,14.92
2022-08-11T01:47:53.368Z,14.76
2022-08-11T01:51:22.918Z,14.66
2022-08-11T01:54:26.843Z,14.55
2022-08-11T01:57:34.270Z,14.47
2022-08-11T02:00:51.018Z,14.42
2022-08-11T02:04:01.456Z,14.31
2022-08-11T02:07:14.440Z,14.26
2022-08-11T02:10:50.736Z,14.35
2022-08-11T02:14:22.321Z,14.35
2022-08-11T02:18:10.431Z,14.24
2022-08-11T02:21:30.727Z,14.31
2022-08-11T02:24:37.894Z,14.19
2022-08-11T02:27:56.056Z,14.14
2022-08-11T02:32:24.422Z,14.09
2022-08-11T02:35:17.054Z,14.08
2022-08-11T02:38:22.092Z,13.97
2022-08-11T02:41:55.134Z,13.98
2022-08-11T02:44:59.563Z,14.02
2022-08-11T02:48:55.022Z,13.93
2022-08-11T02:52:14.619Z,13.80
2022-08-11T02:55:55.747Z,13.72
2022-08-11T02:59:12.180Z,13.84
2022-08-11T03:02:31.408Z,13.83
2022-08-11T03:06:14.513Z,13.78
2022-08-11T03:09:27.894Z,13.63
2022-08-11T03:12:53.706Z,13.58
2022-08-11T03:16:37.370Z,13.42
2022-08-11T03:19:53.284Z,13.45
2022-08-11T03:23:24.568Z,13.40
2022-08-11T03:26:38.681Z,13.44
2022-08-11T03:29:45.124Z,13.43
2022-08-11T03:33:34.318Z,13.34
2022-08-11T03:37:33.510Z,13.32
2022-08-11T03:41:50.037Z,13.40
2022-08-11T03:44:52.049Z,13.21
2022-08-11T03:48:00.629Z,13.32
2022-08-11T03:51:23.687Z,13.32
2022-08-11T03:54:56.291Z,13.33
2022-08-11T03:58:26.646Z,13.24
2022-08-11T04:01:38.315Z,13.18
2022-08-11T04:05:14.931Z,13.20
2022-08-11T04:08:34.115Z,13.14
2022-08-11T04:11:42.172Z,13.06
2022-08-11T04:15:26.709Z,12.93
2022-08-11T04:19:05.385Z,12.90
2022-08-11T04:22:23.161Z,12.98
2022-08-11T04:25:58.043Z,12.98
2022-08-11T04:29:15.178Z,12.78
2022-08-11T04:32:38.554Z,12.86
2022-08-11T04:35:52.734Z,12.80
2022-08-11T04:38:58.991Z,12.71
2022-08-11T04:42:31.878Z,12.81
2022-08-11T04:46:05.693Z,12.93
2022-08-11T04:50:03.431Z,13.02
2022-08-11T04:53:41.187Z,12.90
2022-08-11T04:57:02.315Z,12.79
2022-08-11T05:00:31.676Z,12.78
2022-08-11T05:04:40.010Z,12.73
2022-08-11T05:08:23.841Z,12.88
2022-08-11T05:12:02.297Z,13.03
2022-08-11T05:15:22.893Z,13.15
2022-08-11T05:18:43.050Z,13.23
2022-08-11T05:22:06.598Z,13.26
2022-08-11T05:26:45.212Z,13.37
2022-08-11T05:29:20.234Z,13.45
2022-08-11T05:32:40.986Z,13.51
2022-08-11T05:36:02.317Z,13.65
2022-08-11T05:39:33.964Z,13.78
2022-08-11T05:43:09.328Z,13.91
2022-08-11T05:46:29.329Z,13.99
2022-08-11T05:49:50.449Z,14.13
2022-08-11T05:53:11.969Z,14.25
2022-08-11T05:56:19.873Z,14.40
2022-08-11T05:59:21.936Z,14.54
2022-08-11T06:02:23.599Z,14.62
2022-08-11T06:05:25.325Z,14.71
2022-08-11T06:08:30.746Z,14.87
2022-08-11T06:11:43.705Z,15.00
2022-08-11T06:14:46.249Z,15.14
2022-08-11T06:17:47.957Z,15.24
2022-08-11T06:20:55.002Z,15.51
2022-08-11T06:23:56.486Z,15.70
2022-08-11T06:27:13.933Z,15.87
2022-08-11T06:30:15.575Z,15.95
2022-08-11T06:33:20.400Z,16.07
2022-08-11T06:36:35.390Z,16.23
2022-08-11T06:39:47.370Z,16.45
2022-08-11T06:42:55.378Z,16.75
2022-08-11T06:46:07.935Z,16.85
2022-08-11T06:49:30.505Z,17.04
2022-08-11T06:52:34.828Z,17.28
2022-08-11T06:55:59.014Z,17.50
2022-08-11T06:59:19.819Z,17.80
2022-08-11T07:02:39.357Z,18.32
2022-08-11T07:05:45.225Z,18.46
2022-08-11T07:09:33.363Z,18.56
2022-08-11T07:12:57.835Z,19.02
2022-08-11T07:16:12.599Z,19.41
2022-08-11T07:19:35.490Z,19.75
2022-08-11T07:22:55.723Z,20.55
2022-08-11T07:26:15.847Z,21.23
2022-08-11T07:29:17.376Z,21.50
2022-08-11T07:32:29.975Z,21.70
2022-08-11T07:35:34.010Z,22.08
2022-08-11T07:38:47.495Z,22.37
2022-08-11T07:41:50.162Z,22.65
2022-08-11T07:45:10.274Z,22.81
2022-08-11T07:48:30.199Z,22.88
2022-08-11T07:51:50.280Z,23.07
2022-08-11T07:54:51.740Z,23.30
2022-08-11T07:58:16.934Z,23.22
2022-08-11T08:01:42.505Z,23.52
2022-08-11T08:05:02.501Z,23.73
2022-08-11T08:08:23.249Z,23.89
2022-08-11T08:11:43.371Z,23.96
2022-08-11T08:15:03.514Z,24.35
2022-08-11T08:18:08.949Z,24.35
2022-08-11T08:21:27.136Z,24.55
2022-08-11T08:24:28.722Z,24.94
2022-08-11T08:27:30.244Z,25.07
2022-08-11T08:30:49.542Z,25.17
2022-08-11T08:33:51.009Z,25.33
2022-08-11T08:36:52.513Z,25.40
2022-08-11T08:39:54.806Z,25.90
2022-08-11T08:42:57.388Z,25.90
2022-08-11T08:45:59.174Z,25.66
2022-08-11T08:49:01.660Z,25.92
2022-08-11T08:52:30.623Z,25.91
2022-08-11T08:55:26.462Z,25.82
2022-08-11T08:58:28.028Z,25.91
2022-08-11T09:01:31.119Z,26.24
2022-08-11T09:04:32.796Z,26.25
2022-08-11T09:07:39.380Z,26.33
2022-08-11T09:10:42.001Z,26.66
2022-08-11T09:13:44.370Z,26.73
2022-08-11T09:16:45.973Z,26.83
2022-08-11T09:19:54.115Z,26.74
2022-08-11T09:26:58.502Z,27.40
2022-08-11T09:30:00.080Z,27.58
2022-08-11T09:33:01.976Z,27.87
2022-08-11T09:36:23.656Z,28.36
2022-08-11T09:39:43.812Z,28.99
2022-08-11T09:43:03.965Z,29.32
2022-08-11T09:46:06.133Z,28.87
2022-08-11T09:49:07.618Z,28.64
2022-08-11T09:52:09.604Z,28.33
2022-08-11T09:55:11.399Z,27.78
2022-08-11T09:58:42.053Z,28.16
2022-08-11T10:01:47.291Z,28.17
2022-08-11T10:04:49.016Z,28.23
2022-08-11T10:07:52.373Z,28.36
2022-08-11T10:10:53.949Z,28.38
2022-08-11T10:14:32.662Z,28.41
2022-08-11T10:17:36.249Z,28.62
2022-08-11T10:20:37.978Z,28.61
2022-08-11T10:24:00.813Z,29.42
2022-08-11T10:27:08.382Z,29.94
2022-08-11T10:30:31.297Z,29.14
2022-08-11T10:33:59.001Z,29.59
2022-08-11T10:37:04.149Z,29.65
2022-08-11T10:40:06.116Z,30.24
2022-08-11T10:43:10.546Z,30.15
2022-08-11T10:46:30.930Z,30.45
2022-08-11T10:49:32.426Z,30.61
2022-08-11T10:52:53.447Z,30.82
2022-08-11T10:56:13.522Z,29.25
2022-08-11T10:59:15.545Z,29.67
2022-08-11T11:02:17.180Z,29.75
2022-08-11T11:05:27.193Z,30.08
2022-08-11T11:12:13.410Z,30.39
2022-08-11T11:15:33.412Z,30.75
2022-08-11T11:18:36.612Z,30.90
2022-08-11T11:21:38.768Z,31.02
2022-08-11T11:25:05.774Z,30.65
2022-08-11T11:28:14.225Z,30.58
2022-08-11T11:31:24.621Z,30.92
2022-08-11T11:35:00.200Z,30.80
2022-08-11T11:38:05.040Z,30.31
2022-08-11T11:41:26.522Z,31.01
2022-08-11T11:44:28.035Z,30.79
2022-08-11T11:47:30.261Z,31.56
2022-08-11T11:50:34.764Z,31.37
2022-08-11T11:53:36.258Z,31.46
2022-08-11T11:56:37.757Z,30.97
2022-08-11T11:59:57.944Z,31.64
2022-08-11T12:03:00.489Z,32.20
2022-08-11T12:06:02.673Z,32.31
2022-08-11T12:09:04.191Z,32.28
2022-08-11T12:12:24.363Z,31.87
2022-08-11T12:16:04.425Z,31.32
2022-08-11T12:18:48.096Z,31.53
2022-08-11T12:22:13.767Z,31.31
2022-08-11T12:25:33.794Z,31.55
2022-08-11T12:28:35.280Z,31.11
2022-08-11T12:31:38.065Z,31.31
2022-08-11T12:34:39.549Z,31.83
2022-08-11T12:37:43.642Z,31.07
2022-08-11T12:41:19.382Z,31.01
2022-08-11T12:44:39.930Z,31.22
2022-08-11T12:48:40.124Z,31.16
2022-08-11T12:52:10.997Z,31.31
2022-08-11T12:55:12.533Z,31.33
2022-08-11T12:58:17.766Z,31.09
2022-08-11T13:01:37.938Z,31.71
2022-08-11T13:04:59.107Z,31.75
2022-08-11T13:08:01.713Z,31.59
2022-08-11T13:11:21.816Z,31.67
2022-08-11T13:14:23.389Z,31.75
2022-08-11T13:17:43.562Z,30.80
2022-08-11T13:20:45.825Z,30.93
2022-08-11T13:24:00.291Z,31.15
2022-08-11T13:27:04.407Z,31.07
2022-08-11T13:30:24.908Z,30.87
2022-08-11T13:33:26.556Z,31.60
2022-08-11T13:36:28.846Z,31.63
2022-08-11T13:39:31.365Z,32.12
2022-08-11T13:42:33.287Z,32.70
2022-08-11T13:45:35.995Z,32.49
2022-08-11T13:48:37.521Z,32.57
2022-08-11T13:51:40.088Z,32.62
2022-08-11T13:54:42.511Z,32.85
2022-08-11T13:58:08.851Z,34.07
2022-08-11T14:01:11.339Z,33.65
2022-08-11T14:04:39.380Z,33.41
2022-08-11T14:07:50.864Z,33.54
2022-08-11T14:12:20.317Z,33.58
2022-08-11T14:14:35.392Z,33.21
2022-08-11T14:17:47.856Z,33.46
2022-08-11T14:21:11.523Z,33.39
2022-08-11T14:24:13.121Z,32.25
2022-08-11T14:28:30.118Z,32.02
2022-08-11T14:30:58.922Z,31.48
2022-08-11T14:34:04.443Z,31.15
2022-08-11T14:37:08.324Z,30.63
2022-08-11T14:40:31.849Z,30.21
2022-08-11T14:44:12.695Z,30.16
2022-08-11T14:47:24.646Z,30.50
2022-08-11T14:50:28.652Z,30.53
2022-08-11T14:53:30.144Z,30.48
2022-08-11T14:56:37.099Z,30.47
2022-08-11T14:59:38.572Z,30.92
2022-08-11T15:02:58.677Z,30.68
2022-08-11T15:06:02.110Z,30.83
2022-08-11T15:09:08.714Z,30.87
2022-08-11T15:12:32.847Z,30.82
2022-08-11T15:15:53.544Z,30.45
2022-08-11T15:18:55.672Z,30.54
2022-08-11T15:22:15.891Z,30.57
2022-08-11T15:25:17.418Z,30.52
2022-08-11T15:28:37.310Z,30.50
2022-08-11T15:31:57.496Z,30.56
2022-08-11T15:35:19.579Z,30.32
2022-08-11T15:38:21.227Z,30.28
2022-08-11T15:41:44.840Z,30.27
2022-08-11T15:45:15.792Z,30.33
2022-08-11T15:48:28.357Z,30.26
2022-08-11T15:51:49.601Z,30.23
2022-08-11T15:54:51.099Z,29.97
2022-08-11T15:58:12.315Z,30.00
2022-08-11T16:01:32.356Z,30.02
2022-08-11T16:04:33.924Z,30.08
2022-08-11T16:07:39.121Z,29.94
2022-08-11T16:10:42.764Z,29.92
2022-08-11T16:13:46.397Z,29.87
2022-08-11T16:16:48.583Z,30.00
2022-08-11T16:19:50.275Z,29.81
2022-08-11T16:22:57.122Z,29.71
2022-08-11T16:27:11.670Z,29.68
2022-08-11T16:29:26.209Z,29.74
2022-08-11T16:32:27.748Z,29.61
2022-08-11T16:35:47.776Z,29.59
2022-08-11T16:38:49.290Z,29.57
2022-08-11T16:42:09.468Z,29.49
2022-08-11T16:45:49.584Z,29.53
2022-08-11T16:48:52.662Z,29.28
2022-08-11T16:51:54.139Z,29.35
2022-08-11T16:54:55.615Z,29.39
2022-08-11T16:58:15.725Z,29.32
2022-08-11T17:01:18.223Z,29.19
2022-08-11T17:04:57.843Z,29.05
2022-08-11T17:08:19.716Z,28.99
2022-08-11T17:11:45.303Z,28.70
2022-08-11T17:14:58.529Z,28.48
2022-08-11T17:18:00.558Z,28.40
2022-08-11T17:21:02.139Z,28.45
2022-08-11T17:24:09.086Z,28.37
2022-08-11T17:27:13.168Z,28.31
2022-08-11T17:30:14.871Z,28.17
2022-08-11T17:33:34.953Z,28.09
2022-08-11T17:36:39.312Z,28.07
2022-08-11T17:39:43.464Z,27.92
2022-08-11T17:43:03.674Z,27.83
2022-08-11T17:46:05.237Z,27.63
2022-08-11T17:49:11.176Z,27.49
2022-08-11T17:52:35.281Z,27.40
2022-08-11T17:55:56.075Z,27.31
2022-08-11T17:59:18.320Z,27.26
2022-08-11T18:02:41.315Z,27.14
2022-08-11T18:05:45.568Z,26.87
2022-08-11T18:09:05.596Z,26.76
2022-08-11T18:12:26.091Z,26.71
2022-08-11T18:15:55.694Z,26.65
2022-08-11T18:19:16.256Z,26.50
2022-08-11T18:22:47.911Z,26.39
2022-08-11T18:26:08.069Z,26.27
2022-08-11T18:29:28.344Z,26.07
2022-08-11T18:32:50.082Z,25.81
2022-08-11T18:36:13.489Z,25.64
2022-08-11T18:39:33.638Z,25.49
2022-08-11T18:42:53.507Z,25.31
2022-08-11T18:46:18.449Z,25.16
2022-08-11T18:50:02.043Z,24.96
2022-08-11T18:53:24.372Z,24.69
2022-08-11T18:56:44.526Z,24.38
2022-08-11T19:00:04.574Z,24.12
2022-08-11T19:03:24.592Z,24.01
2022-08-11T19:06:44.776Z,23.76
2022-08-11T19:10:04.874Z,23.58
2022-08-11T19:13:27.191Z,23.41
2022-08-11T19:16:47.352Z,23.24
2022-08-11T19:20:07.430Z,23.17
2022-08-11T19:23:28.337Z,22.99
2022-08-11T19:26:48.527Z,22.88
2022-08-11T19:30:13.855Z,22.71
2022-08-11T19:34:02.395Z,22.56
2022-08-11T19:37:14.728Z,22.40
2022-08-11T19:40:34.835Z,22.29
2022-08-11T19:43:54.944Z,22.09
2022-08-11T19:47:14.958Z,21.89
2022-08-11T19:50:35.021Z,21.82
2022-08-11T19:53:57.935Z,21.72
2022-08-11T19:57:18.736Z,21.57
2022-08-11T20:00:39.318Z,21.36
2022-08-11T20:04:00.703Z,21.19
2022-08-11T20:07:20.974Z,20.89
2022-08-11T20:10:40.972Z,20.79
2022-08-11T20:14:00.949Z,20.75
2022-08-11T20:17:21.168Z,20.54
2022-08-11T20:20:42.118Z,20.43
2022-08-11T20:24:03.108Z,20.18
2022-08-11T20:27:24.606Z,19.98
2022-08-11T20:30:45.564Z,20.07
2022-08-11T20:34:05.691Z,19.88
2022-08-11T20:37:25.873Z,19.91
2022-08-11T20:40:45.984Z,19.72
2022-08-11T20:44:09.190Z,19.50
2022-08-11T20:47:29.861Z,19.32
2022-08-11T20:50:50.424Z,19.18
2022-08-11T20:54:12.452Z,19.25
2022-08-11T20:57:54.468Z,19.10
2022-08-11T21:01:20.496Z,18.99
2022-08-11T21:04:54.288Z,18.81
2022-08-11T21:08:15.414Z,18.67
2022-08-11T21:11:36.521Z,18.64
2022-08-11T21:14:57.388Z,18.57
2022-08-11T21:18:28.182Z,18.53
2022-08-11T21:21:49.872Z,18.52
2022-08-11T21:25:14.945Z,18.43
2022-08-11T21:28:35.232Z,18.35
2022-08-11T21:31:56.069Z,18.17
2022-08-11T21:35:16.123Z,18.22
2022-08-11T21:38:36.110Z,18.12
2022-08-11T21:41:56.919Z,18.03
2022-08-11T21:45:17.078Z,17.98
2022-08-11T21:48:37.196Z,17.85
2022-08-11T21:51:57.171Z,17.85
2022-08-11T21:55:17.248Z,17.72
2022-08-11T21:58:37.401Z,17.57
2022-08-11T22:01:57.627Z,17.64
2022-08-11T22:05:17.886Z,17.52
2022-08-11T22:08:37.576Z,17.61
2022-08-11T22:12:30.247Z,17.44
2022-08-11T22:15:37.722Z,17.24
2022-08-11T22:18:57.722Z,17.38
2022-08-11T22:22:17.837Z,17.22
2022-08-11T22:25:38.719Z,17.22
2022-08-11T22:28:59.074Z,17.20
2022-08-11T22:32:19.199Z,17.00
2022-08-11T22:35:39.195Z,16.90
2022-08-11T22:38:59.794Z,16.88
2022-08-11T22:42:20.094Z,16.77
2022-08-11T22:45:52.426Z,16.70
2022-08-11T22:49:12.187Z,16.57
2022-08-11T22:52:32.485Z,16.39
2022-08-11T22:55:52.550Z,16.34
2022-08-11T22:59:12.626Z,16.36
2022-08-11T23:02:34.336Z,16.41
2022-08-11T23:05:54.534Z,16.24
2022-08-11T23:09:15.214Z,16.33
2022-08-11T23:12:35.512Z,16.24
2022-08-11T23:15:55.655Z,16.15
2022-08-11T23:20:08.702Z,16.05
2022-08-11T23:22:56.169Z,16.12
2022-08-11T23:26:16.430Z,16.24
2022-08-11T23:29:36.519Z,16.20
2022-08-11T23:32:56.619Z,15.98
2022-08-11T23:36:35.983Z,15.78
2022-08-11T23:39:56.781Z,15.74
2022-08-11T23:43:16.922Z,15.78
2022-08-11T23:46:40.255Z,15.65
2022-08-11T23:50:00.398Z,15.52
2022-08-11T23:53:21.023Z,15.56
2022-08-11T23:56:41.034Z,15.45
